sensor_id;sensor_type;location;lat;lon;timestamp;temperature;humidity
47861;HTU21D;33620;52.340;5.984;2023-04-25T00:01:21;8.01;88.64
47861;HTU21D;33620;52.340;5.984;2023-04-25T00:03:49;7.99;88.28
47861;HTU21D;33620;52.340;5.984;2023-04-25T00:06:15;7.92;88.34
47861;HTU21D;33620;52.340;5.984;2023-04-25T00:08:40;7.88;88.59
47861;HTU21D;33620;52.340;5.984;2023-04-25T00:11:05;7.89;89.08
47861;HTU21D;33620;52.340;5.984;2023-04-25T00:13:31;7.89;88.47
47861;HTU21D;33620;52.340;5.984;2023-04-25T00:15:56;7.90;88.86
47861;HTU21D;33620;52.340;5.984;2023-04-25T00:18:23;7.93;88.88
47861;HTU21D;33620;52.340;5.984;2023-04-25T00:20:48;7.98;88.99
47861;HTU21D;33620;52.340;5.984;2023-04-25T00:23:14;7.93;88.37
47861;HTU21D;33620;52.340;5.984;2023-04-25T00:25:46;7.93;88.48
47861;HTU21D;33620;52.340;5.984;2023-04-25T00:28:12;7.91;88.23
47861;HTU21D;33620;52.340;5.984;2023-04-25T00:30:37;7.93;88.59
47861;HTU21D;33620;52.340;5.984;2023-04-25T00:33:03;7.97;88.49
47861;HTU21D;33620;52.340;5.984;2023-04-25T00:35:28;8.01;88.44
47861;HTU21D;33620;52.340;5.984;2023-04-25T00:37:53;8.01;88.40
47861;HTU21D;33620;52.340;5.984;2023-04-25T00:40:19;8.05;88.41
47861;HTU21D;33620;52.340;5.984;2023-04-25T00:42:44;8.08;88.41
47861;HTU21D;33620;52.340;5.984;2023-04-25T00:45:10;8.03;87.75
47861;HTU21D;33620;52.340;5.984;2023-04-25T00:47:37;8.02;88.09
47861;HTU21D;33620;52.340;5.984;2023-04-25T00:50:03;7.97;87.91
47861;HTU21D;33620;52.340;5.984;2023-04-25T00:52:28;7.87;87.51
47861;HTU21D;33620;52.340;5.984;2023-04-25T00:54:53;7.87;87.66
47861;HTU21D;33620;52.340;5.984;2023-04-25T00:57:19;7.90;87.66
47861;HTU21D;33620;52.340;5.984;2023-04-25T00:59:45;7.90;87.22
47861;HTU21D;33620;52.340;5.984;2023-04-25T01:02:11;7.86;86.37
47861;HTU21D;33620;52.340;5.984;2023-04-25T01:04:37;7.83;86.90
47861;HTU21D;33620;52.340;5.984;2023-04-25T01:07:02;7.81;87.06
47861;HTU21D;33620;52.340;5.984;2023-04-25T01:09:28;7.74;86.68
47861;HTU21D;33620;52.340;5.984;2023-04-25T01:11:55;7.72;86.90
47861;HTU21D;33620;52.340;5.984;2023-04-25T01:14:20;7.70;86.97
47861;HTU21D;33620;52.340;5.984;2023-04-25T01:16:45;7.68;87.32
47861;HTU21D;33620;52.340;5.984;2023-04-25T01:19:11;7.69;87.51
47861;HTU21D;33620;52.340;5.984;2023-04-25T01:21:37;7.67;87.54
47861;HTU21D;33620;52.340;5.984;2023-04-25T01:24:02;7.65;87.69
47861;HTU21D;33620;52.340;5.984;2023-04-25T01:26:28;7.62;87.42
47861;HTU21D;33620;52.340;5.984;2023-04-25T01:28:53;7.60;87.25
47861;HTU21D;33620;52.340;5.984;2023-04-25T01:31:39;7.56;87.48
47861;HTU21D;33620;52.340;5.984;2023-04-25T01:34:04;7.54;87.60
47861;HTU21D;33620;52.340;5.984;2023-04-25T01:36:29;7.50;87.57
47861;HTU21D;33620;52.340;5.984;2023-04-25T01:38:56;7.48;87.75
47861;HTU21D;33620;52.340;5.984;2023-04-25T01:41:21;7.43;87.83
47861;HTU21D;33620;52.340;5.984;2023-04-25T01:43:48;7.38;87.84
47861;HTU21D;33620;52.340;5.984;2023-04-25T01:46:13;7.29;87.70
47861;HTU21D;33620;52.340;5.984;2023-04-25T01:48:38;7.26;88.02
47861;HTU21D;33620;52.340;5.984;2023-04-25T01:51:04;7.20;87.89
47861;HTU21D;33620;52.340;5.984;2023-04-25T01:53:29;7.15;88.07
47861;HTU21D;33620;52.340;5.984;2023-04-25T01:55:55;7.12;87.77
47861;HTU21D;33620;52.340;5.984;2023-04-25T01:58:20;7.11;87.97
47861;HTU21D;33620;52.340;5.984;2023-04-25T02:00:46;7.04;87.20
47861;HTU21D;33620;52.340;5.984;2023-04-25T02:03:11;7.01;87.54
47861;HTU21D;33620;52.340;5.984;2023-04-25T02:05:37;7.03;87.79
47861;HTU21D;33620;52.340;5.984;2023-04-25T02:08:04;7.08;88.00
47861;HTU21D;33620;52.340;5.984;2023-04-25T02:10:29;7.10;87.63
47861;HTU21D;33620;52.340;5.984;2023-04-25T02:12:54;7.04;87.04
47861;HTU21D;33620;52.340;5.984;2023-04-25T02:15:19;7.02;87.41
47861;HTU21D;33620;52.340;5.984;2023-04-25T02:17:45;7.03;87.22
47861;HTU21D;33620;52.340;5.984;2023-04-25T02:20:10;7.04;87.03
47861;HTU21D;33620;52.340;5.984;2023-04-25T02:22:36;7.01;86.81
47861;HTU21D;33620;52.340;5.984;2023-04-25T02:25:02;7.02;86.70
47861;HTU21D;33620;52.340;5.984;2023-04-25T02:27:29;7.00;86.54
47861;HTU21D;33620;52.340;5.984;2023-04-25T02:29:55;6.96;86.41
47861;HTU21D;33620;52.340;5.984;2023-04-25T02:32:20;6.96;86.53
47861;HTU21D;33620;52.340;5.984;2023-04-25T02:34:45;6.96;86.45
47861;HTU21D;33620;52.340;5.984;2023-04-25T02:37:11;6.95;86.32
47861;HTU21D;33620;52.340;5.984;2023-04-25T02:39:36;6.99;86.73
47861;HTU21D;33620;52.340;5.984;2023-04-25T02:42:01;7.01;86.94
47861;HTU21D;33620;52.340;5.984;2023-04-25T02:44:27;6.98;86.34
47861;HTU21D;33620;52.340;5.984;2023-04-25T02:46:53;6.90;86.41
47861;HTU21D;33620;52.340;5.984;2023-04-25T02:49:18;6.87;86.80
47861;HTU21D;33620;52.340;5.984;2023-04-25T02:51:43;6.84;86.95
47861;HTU21D;33620;52.340;5.984;2023-04-25T02:54:09;6.84;86.98
47861;HTU21D;33620;52.340;5.984;2023-04-25T02:56:34;6.84;87.05
47861;HTU21D;33620;52.340;5.984;2023-04-25T02:58:59;6.84;87.00
47861;HTU21D;33620;52.340;5.984;2023-04-25T03:01:25;6.82;87.06
47861;HTU21D;33620;52.340;5.984;2023-04-25T03:03:50;6.79;87.33
47861;HTU21D;33620;52.340;5.984;2023-04-25T03:06:15;6.78;87.28
47861;HTU21D;33620;52.340;5.984;2023-04-25T03:08:41;6.74;87.62
47861;HTU21D;33620;52.340;5.984;2023-04-25T03:11:06;6.80;88.08
47861;HTU21D;33620;52.340;5.984;2023-04-25T03:13:31;6.84;87.93
47861;HTU21D;33620;52.340;5.984;2023-04-25T03:15:56;6.86;88.10
47861;HTU21D;33620;52.340;5.984;2023-04-25T03:18:22;6.89;88.15
47861;HTU21D;33620;52.340;5.984;2023-04-25T03:20:47;6.84;87.83
47861;HTU21D;33620;52.340;5.984;2023-04-25T03:23:13;6.74;86.72
47861;HTU21D;33620;52.340;5.984;2023-04-25T03:25:38;6.70;86.95
47861;HTU21D;33620;52.340;5.984;2023-04-25T03:28:03;6.73;87.15
47861;HTU21D;33620;52.340;5.984;2023-04-25T03:30:28;6.73;86.90
47861;HTU21D;33620;52.340;5.984;2023-04-25T03:32:54;6.70;86.54
47861;HTU21D;33620;52.340;5.984;2023-04-25T03:35:20;6.71;86.70
47861;HTU21D;33620;52.340;5.984;2023-04-25T03:37:45;6.70;86.48
47861;HTU21D;33620;52.340;5.984;2023-04-25T03:40:11;6.75;87.12
47861;HTU21D;33620;52.340;5.984;2023-04-25T03:42:36;6.75;86.90
47861;HTU21D;33620;52.340;5.984;2023-04-25T03:45:01;6.74;86.52
47861;HTU21D;33620;52.340;5.984;2023-04-25T03:47:27;6.73;86.99
47861;HTU21D;33620;52.340;5.984;2023-04-25T03:49:52;6.73;87.15
47861;HTU21D;33620;52.340;5.984;2023-04-25T03:52:18;6.71;87.16
47861;HTU21D;33620;52.340;5.984;2023-04-25T03:54:43;6.73;87.71
47861;HTU21D;33620;52.340;5.984;2023-04-25T03:57:08;6.81;88.12
47861;HTU21D;33620;52.340;5.984;2023-04-25T03:59:33;6.86;88.34
47861;HTU21D;33620;52.340;5.984;2023-04-25T04:01:59;6.93;88.12
47861;HTU21D;33620;52.340;5.984;2023-04-25T04:04:24;6.87;87.38
47861;HTU21D;33620;52.340;5.984;2023-04-25T04:06:49;6.84;87.80
47861;HTU21D;33620;52.340;5.984;2023-04-25T04:09:15;6.83;87.89
47861;HTU21D;33620;52.340;5.984;2023-04-25T04:11:41;6.79;87.68
47861;HTU21D;33620;52.340;5.984;2023-04-25T04:14:06;6.74;87.51
47861;HTU21D;33620;52.340;5.984;2023-04-25T04:16:32;6.64;87.46
47861;HTU21D;33620;52.340;5.984;2023-04-25T04:18:57;6.59;87.86
47861;HTU21D;33620;52.340;5.984;2023-04-25T04:21:22;6.56;88.13
47861;HTU21D;33620;52.340;5.984;2023-04-25T04:23:48;6.56;88.07
47861;HTU21D;33620;52.340;5.984;2023-04-25T04:26:13;6.53;88.06
47861;HTU21D;33620;52.340;5.984;2023-04-25T04:28:40;6.55;88.39
47861;HTU21D;33620;52.340;5.984;2023-04-25T04:31:05;6.54;87.99
47861;HTU21D;33620;52.340;5.984;2023-04-25T04:33:32;6.52;88.18
47861;HTU21D;33620;52.340;5.984;2023-04-25T04:35:57;6.55;88.07
47861;HTU21D;33620;52.340;5.984;2023-04-25T04:38:23;6.57;88.26
47861;HTU21D;33620;52.340;5.984;2023-04-25T04:40:49;6.57;87.83
47861;HTU21D;33620;52.340;5.984;2023-04-25T04:43:15;6.56;87.96
47861;HTU21D;33620;52.340;5.984;2023-04-25T04:45:42;6.53;88.28
47861;HTU21D;33620;52.340;5.984;2023-04-25T04:48:08;6.44;88.37
47861;HTU21D;33620;52.340;5.984;2023-04-25T04:50:33;6.21;88.49
47861;HTU21D;33620;52.340;5.984;2023-04-25T04:52:59;6.25;89.02
47861;HTU21D;33620;52.340;5.984;2023-04-25T04:55:24;6.25;88.41
47861;HTU21D;33620;52.340;5.984;2023-04-25T04:57:49;6.16;88.25
47861;HTU21D;33620;52.340;5.984;2023-04-25T05:00:15;6.13;88.34
47861;HTU21D;33620;52.340;5.984;2023-04-25T05:02:40;6.12;88.25
47861;HTU21D;33620;52.340;5.984;2023-04-25T05:05:06;6.12;88.14
47861;HTU21D;33620;52.340;5.984;2023-04-25T05:07:31;6.15;88.29
47861;HTU21D;33620;52.340;5.984;2023-04-25T05:09:57;6.14;87.96
47861;HTU21D;33620;52.340;5.984;2023-04-25T05:12:22;6.19;88.34
47861;HTU21D;33620;52.340;5.984;2023-04-25T05:14:47;6.20;87.81
47861;HTU21D;33620;52.340;5.984;2023-04-25T05:17:13;6.17;87.84
47861;HTU21D;33620;52.340;5.984;2023-04-25T05:19:38;6.22;87.92
47861;HTU21D;33620;52.340;5.984;2023-04-25T05:22:04;6.24;87.80
47861;HTU21D;33620;52.340;5.984;2023-04-25T05:24:30;6.24;87.91
47861;HTU21D;33620;52.340;5.984;2023-04-25T05:26:55;6.29;87.91
47861;HTU21D;33620;52.340;5.984;2023-04-25T05:29:21;6.34;87.93
47861;HTU21D;33620;52.340;5.984;2023-04-25T05:31:46;6.35;87.41
47861;HTU21D;33620;52.340;5.984;2023-04-25T05:34:12;6.36;87.47
47861;HTU21D;33620;52.340;5.984;2023-04-25T05:36:38;6.41;87.65
47861;HTU21D;33620;52.340;5.984;2023-04-25T05:39:03;6.45;87.90
47861;HTU21D;33620;52.340;5.984;2023-04-25T05:41:29;6.44;87.37
47861;HTU21D;33620;52.340;5.984;2023-04-25T05:43:54;6.44;87.41
47861;HTU21D;33620;52.340;5.984;2023-04-25T05:46:19;6.45;87.38
47861;HTU21D;33620;52.340;5.984;2023-04-25T05:48:45;6.41;87.10
47861;HTU21D;33620;52.340;5.984;2023-04-25T05:51:10;6.42;87.08
47861;HTU21D;33620;52.340;5.984;2023-04-25T05:53:36;6.44;87.46
47861;HTU21D;33620;52.340;5.984;2023-04-25T05:56:01;6.45;87.77
47861;HTU21D;33620;52.340;5.984;2023-04-25T05:58:26;6.45;87.54
47861;HTU21D;33620;52.340;5.984;2023-04-25T06:00:52;6.40;87.69
47861;HTU21D;33620;52.340;5.984;2023-04-25T06:03:17;6.46;88.09
47861;HTU21D;33620;52.340;5.984;2023-04-25T06:05:42;6.51;88.01
47861;HTU21D;33620;52.340;5.984;2023-04-25T06:08:08;6.55;88.39
47861;HTU21D;33620;52.340;5.984;2023-04-25T06:10:33;6.48;86.81
47861;HTU21D;33620;52.340;5.984;2023-04-25T06:12:59;6.49;87.52
47861;HTU21D;33620;52.340;5.984;2023-04-25T06:15:24;6.51;87.62
47861;HTU21D;33620;52.340;5.984;2023-04-25T06:17:49;6.55;87.77
47861;HTU21D;33620;52.340;5.984;2023-04-25T06:20:15;6.61;87.81
47861;HTU21D;33620;52.340;5.984;2023-04-25T06:22:40;6.73;88.15
47861;HTU21D;33620;52.340;5.984;2023-04-25T06:25:05;6.80;88.06
47861;HTU21D;33620;52.340;5.984;2023-04-25T06:27:32;6.94;88.64
47861;HTU21D;33620;52.340;5.984;2023-04-25T06:29:58;7.04;88.29
47861;HTU21D;33620;52.340;5.984;2023-04-25T06:32:23;7.12;87.83
47861;HTU21D;33620;52.340;5.984;2023-04-25T06:34:48;7.02;83.71
47861;HTU21D;33620;52.340;5.984;2023-04-25T06:37:13;7.10;84.56
47861;HTU21D;33620;52.340;5.984;2023-04-25T06:39:39;7.14;84.59
47861;HTU21D;33620;52.340;5.984;2023-04-25T06:42:04;7.18;84.93
47861;HTU21D;33620;52.340;5.984;2023-04-25T06:44:29;7.16;84.10
47861;HTU21D;33620;52.340;5.984;2023-04-25T06:46:55;7.17;84.01
47861;HTU21D;33620;52.340;5.984;2023-04-25T06:49:21;7.17;83.48
47861;HTU21D;33620;52.340;5.984;2023-04-25T06:51:46;7.25;84.48
47861;HTU21D;33620;52.340;5.984;2023-04-25T06:54:11;7.29;83.84
47861;HTU21D;33620;52.340;5.984;2023-04-25T06:56:37;7.31;84.03
47861;HTU21D;33620;52.340;5.984;2023-04-25T06:59:02;7.41;84.84
47861;HTU21D;33620;52.340;5.984;2023-04-25T07:01:27;7.50;84.29
47861;HTU21D;33620;52.340;5.984;2023-04-25T07:03:52;7.52;83.87
47861;HTU21D;33620;52.340;5.984;2023-04-25T07:06:18;7.56;83.81
47861;HTU21D;33620;52.340;5.984;2023-04-25T07:08:43;7.70;84.18
47861;HTU21D;33620;52.340;5.984;2023-04-25T07:11:08;7.73;83.20
47861;HTU21D;33620;52.340;5.984;2023-04-25T07:13:34;7.82;83.84
47861;HTU21D;33620;52.340;5.984;2023-04-25T07:15:59;7.91;83.70
47861;HTU21D;33620;52.340;5.984;2023-04-25T07:18:24;7.98;83.86
47861;HTU21D;33620;52.340;5.984;2023-04-25T07:20:50;8.00;82.84
47861;HTU21D;33620;52.340;5.984;2023-04-25T07:23:15;8.04;82.78
47861;HTU21D;33620;52.340;5.984;2023-04-25T07:25:40;7.94;80.94
47861;HTU21D;33620;52.340;5.984;2023-04-25T07:28:06;7.93;81.01
47861;HTU21D;33620;52.340;5.984;2023-04-25T07:30:31;7.97;81.78
47861;HTU21D;33620;52.340;5.984;2023-04-25T07:32:56;7.94;79.72
47861;HTU21D;33620;52.340;5.984;2023-04-25T07:35:21;7.87;78.09
47861;HTU21D;33620;52.340;5.984;2023-04-25T07:37:47;7.75;79.37
47861;HTU21D;33620;52.340;5.984;2023-04-25T07:40:12;7.37;79.44
47861;HTU21D;33620;52.340;5.984;2023-04-25T07:42:37;7.04;81.94
47861;HTU21D;33620;52.340;5.984;2023-04-25T07:45:03;6.88;82.43
47861;HTU21D;33620;52.340;5.984;2023-04-25T07:47:28;6.94;83.23
47861;HTU21D;33620;52.340;5.984;2023-04-25T07:49:53;6.84;81.85
47861;HTU21D;33620;52.340;5.984;2023-04-25T07:52:19;6.78;82.63
47861;HTU21D;33620;52.340;5.984;2023-04-25T07:54:44;6.74;83.01
47861;HTU21D;33620;52.340;5.984;2023-04-25T07:57:10;6.71;82.68
47861;HTU21D;33620;52.340;5.984;2023-04-25T07:59:35;6.83;84.02
47861;HTU21D;33620;52.340;5.984;2023-04-25T08:02:01;6.80;82.48
47861;HTU21D;33620;52.340;5.984;2023-04-25T08:04:26;6.87;83.41
47861;HTU21D;33620;52.340;5.984;2023-04-25T08:06:51;6.88;82.89
47861;HTU21D;33620;52.340;5.984;2023-04-25T08:09:19;6.98;83.24
47861;HTU21D;33620;52.340;5.984;2023-04-25T08:11:44;7.02;82.86
47861;HTU21D;33620;52.340;5.984;2023-04-25T08:14:09;7.11;83.71
47861;HTU21D;33620;52.340;5.984;2023-04-25T08:16:34;7.16;83.26
47861;HTU21D;33620;52.340;5.984;2023-04-25T08:19:00;7.26;82.68
47861;HTU21D;33620;52.340;5.984;2023-04-25T08:21:25;7.43;83.83
47861;HTU21D;33620;52.340;5.984;2023-04-25T08:23:54;7.54;82.24
47861;HTU21D;33620;52.340;5.984;2023-04-25T08:26:19;7.70;83.62
47861;HTU21D;33620;52.340;5.984;2023-04-25T08:28:45;7.87;83.73
47861;HTU21D;33620;52.340;5.984;2023-04-25T08:31:11;7.99;83.46
47861;HTU21D;33620;52.340;5.984;2023-04-25T08:33:36;8.09;81.77
47861;HTU21D;33620;52.340;5.984;2023-04-25T08:36:01;8.12;79.98
47861;HTU21D;33620;52.340;5.984;2023-04-25T08:38:27;8.35;82.65
47861;HTU21D;33620;52.340;5.984;2023-04-25T08:40:52;8.45;79.72
47861;HTU21D;33620;52.340;5.984;2023-04-25T08:43:19;8.52;78.87
47861;HTU21D;33620;52.340;5.984;2023-04-25T08:45:45;8.57;81.36
47861;HTU21D;33620;52.340;5.984;2023-04-25T08:48:14;8.34;80.11
47861;HTU21D;33620;52.340;5.984;2023-04-25T08:50:50;7.69;76.42
47861;HTU21D;33620;52.340;5.984;2023-04-25T08:53:16;7.00;78.26
47861;HTU21D;33620;52.340;5.984;2023-04-25T08:55:45;6.78;80.27
47861;HTU21D;33620;52.340;5.984;2023-04-25T08:58:10;6.44;80.48
47861;HTU21D;33620;52.340;5.984;2023-04-25T09:00:36;6.46;80.26
47861;HTU21D;33620;52.340;5.984;2023-04-25T09:03:02;6.55;78.45
47861;HTU21D;33620;52.340;5.984;2023-04-25T09:05:28;6.65;78.11
47861;HTU21D;33620;52.340;5.984;2023-04-25T09:07:53;6.72;77.98
47861;HTU21D;33620;52.340;5.984;2023-04-25T09:10:19;6.78;79.55
47861;HTU21D;33620;52.340;5.984;2023-04-25T09:12:44;6.80;78.78
47861;HTU21D;33620;52.340;5.984;2023-04-25T09:15:10;6.96;81.01
47861;HTU21D;33620;52.340;5.984;2023-04-25T09:17:36;7.13;80.97
47861;HTU21D;33620;52.340;5.984;2023-04-25T09:20:12;7.38;81.52
47861;HTU21D;33620;52.340;5.984;2023-04-25T09:22:38;7.68;82.94
47861;HTU21D;33620;52.340;5.984;2023-04-25T09:25:04;7.85;80.04
47861;HTU21D;33620;52.340;5.984;2023-04-25T09:27:32;8.01;78.95
47861;HTU21D;33620;52.340;5.984;2023-04-25T09:29:58;8.26;80.20
47861;HTU21D;33620;52.340;5.984;2023-04-25T09:32:27;8.46;79.93
47861;HTU21D;33620;52.340;5.984;2023-04-25T09:34:53;8.56;77.03
47861;HTU21D;33620;52.340;5.984;2023-04-25T09:39:54;8.78;75.89
47861;HTU21D;33620;52.340;5.984;2023-04-25T09:42:21;8.92;73.90
47861;HTU21D;33620;52.340;5.984;2023-04-25T09:44:47;9.00;71.55
47861;HTU21D;33620;52.340;5.984;2023-04-25T09:47:13;9.18;73.26
47861;HTU21D;33620;52.340;5.984;2023-04-25T09:49:39;9.38;71.11
47861;HTU21D;33620;52.340;5.984;2023-04-25T09:52:06;9.37;69.29
47861;HTU21D;33620;52.340;5.984;2023-04-25T09:54:31;9.22;70.28
47861;HTU21D;33620;52.340;5.984;2023-04-25T09:56:56;8.95;68.68
47861;HTU21D;33620;52.340;5.984;2023-04-25T09:59:23;9.00;68.47
47861;HTU21D;33620;52.340;5.984;2023-04-25T10:01:48;9.16;68.97
47861;HTU21D;33620;52.340;5.984;2023-04-25T10:04:16;9.26;69.89
47861;HTU21D;33620;52.340;5.984;2023-04-25T10:06:43;9.03;62.55
47861;HTU21D;33620;52.340;5.984;2023-04-25T10:09:10;8.94;65.11
47861;HTU21D;33620;52.340;5.984;2023-04-25T10:11:36;9.12;67.65
47861;HTU21D;33620;52.340;5.984;2023-04-25T10:14:02;9.24;65.13
47861;HTU21D;33620;52.340;5.984;2023-04-25T10:16:27;9.42;67.91
47861;HTU21D;33620;52.340;5.984;2023-04-25T10:18:53;9.57;68.05
47861;HTU21D;33620;52.340;5.984;2023-04-25T10:21:19;9.49;63.80
47861;HTU21D;33620;52.340;5.984;2023-04-25T10:23:45;9.35;62.31
47861;HTU21D;33620;52.340;5.984;2023-04-25T10:26:11;9.48;64.05
47861;HTU21D;33620;52.340;5.984;2023-04-25T10:28:56;9.66;65.27
47861;HTU21D;33620;52.340;5.984;2023-04-25T10:31:22;9.78;65.93
47861;HTU21D;33620;52.340;5.984;2023-04-25T10:33:48;9.90;65.01
47861;HTU21D;33620;52.340;5.984;2023-04-25T10:36:14;9.88;59.56
47861;HTU21D;33620;52.340;5.984;2023-04-25T10:38:40;9.79;59.80
47861;HTU21D;33620;52.340;5.984;2023-04-25T10:41:07;10.05;63.27
47861;HTU21D;33620;52.340;5.984;2023-04-25T10:46:02;10.16;60.68
47861;HTU21D;33620;52.340;5.984;2023-04-25T10:48:31;10.14;58.13
47861;HTU21D;33620;52.340;5.984;2023-04-25T10:53:34;10.35;59.32
47861;HTU21D;33620;52.340;5.984;2023-04-25T10:55:59;10.20;57.16
47861;HTU21D;33620;52.340;5.984;2023-04-25T10:58:25;10.18;56.93
47861;HTU21D;33620;52.340;5.984;2023-04-25T11:00:51;10.20;59.34
47861;HTU21D;33620;52.340;5.984;2023-04-25T11:03:16;10.31;56.96
47861;HTU21D;33620;52.340;5.984;2023-04-25T11:05:42;10.38;55.75
47861;HTU21D;33620;52.340;5.984;2023-04-25T11:08:10;10.59;56.87
47861;HTU21D;33620;52.340;5.984;2023-04-25T11:10:36;10.49;56.37
47861;HTU21D;33620;52.340;5.984;2023-04-25T11:13:01;10.54;59.28
47861;HTU21D;33620;52.340;5.984;2023-04-25T11:15:26;10.53;61.35
47861;HTU21D;33620;52.340;5.984;2023-04-25T11:17:52;10.36;59.54
47861;HTU21D;33620;52.340;5.984;2023-04-25T11:20:17;10.52;61.75
47861;HTU21D;33620;52.340;5.984;2023-04-25T11:22:44;10.52;60.41
47861;HTU21D;33620;52.340;5.984;2023-04-25T11:25:10;10.70;59.45
47861;HTU21D;33620;52.340;5.984;2023-04-25T11:27:55;10.87;59.51
47861;HTU21D;33620;52.340;5.984;2023-04-25T11:30:22;11.08;59.67
47861;HTU21D;33620;52.340;5.984;2023-04-25T11:32:48;11.08;57.46
47861;HTU21D;33620;52.340;5.984;2023-04-25T11:35:20;11.19;58.99
47861;HTU21D;33620;52.340;5.984;2023-04-25T11:37:48;11.02;58.20
47861;HTU21D;33620;52.340;5.984;2023-04-25T11:40:13;10.59;57.04
47861;HTU21D;33620;52.340;5.984;2023-04-25T11:42:43;10.40;58.54
47861;HTU21D;33620;52.340;5.984;2023-04-25T11:45:12;10.39;57.88
47861;HTU21D;33620;52.340;5.984;2023-04-25T11:47:40;10.70;59.07
47861;HTU21D;33620;52.340;5.984;2023-04-25T11:50:06;10.96;54.62
47861;HTU21D;33620;52.340;5.984;2023-04-25T11:52:39;10.96;51.66
47861;HTU21D;33620;52.340;5.984;2023-04-25T11:55:08;10.86;48.34
47861;HTU21D;33620;52.340;5.984;2023-04-25T11:57:38;11.14;54.62
47861;HTU21D;33620;52.340;5.984;2023-04-25T12:00:05;11.15;55.20
47861;HTU21D;33620;52.340;5.984;2023-04-25T12:02:31;11.20;55.01
47861;HTU21D;33620;52.340;5.984;2023-04-25T12:04:59;11.28;54.87
47861;HTU21D;33620;52.340;5.984;2023-04-25T12:07:31;11.43;54.15
47861;HTU21D;33620;52.340;5.984;2023-04-25T12:09:56;11.53;51.69
47861;HTU21D;33620;52.340;5.984;2023-04-25T12:12:26;11.61;49.98
47861;HTU21D;33620;52.340;5.984;2023-04-25T12:14:54;11.55;53.14
47861;HTU21D;33620;52.340;5.984;2023-04-25T12:17:22;11.47;53.94
47861;HTU21D;33620;52.340;5.984;2023-04-25T12:19:48;11.51;54.58
47861;HTU21D;33620;52.340;5.984;2023-04-25T12:22:21;11.32;52.88
47861;HTU21D;33620;52.340;5.984;2023-04-25T12:24:46;10.95;54.76
47861;HTU21D;33620;52.340;5.984;2023-04-25T12:27:13;10.71;56.07
47861;HTU21D;33620;52.340;5.984;2023-04-25T12:29:49;10.59;56.93
47861;HTU21D;33620;52.340;5.984;2023-04-25T12:32:17;10.41;57.03
47861;HTU21D;33620;52.340;5.984;2023-04-25T12:34:43;10.44;53.64
47861;HTU21D;33620;52.340;5.984;2023-04-25T12:37:10;10.69;55.87
47861;HTU21D;33620;52.340;5.984;2023-04-25T12:39:38;11.05;57.56
47861;HTU21D;33620;52.340;5.984;2023-04-25T12:42:03;10.94;58.73
47861;HTU21D;33620;52.340;5.984;2023-04-25T12:44:31;10.68;58.17
47861;HTU21D;33620;52.340;5.984;2023-04-25T12:46:57;10.59;57.44
47861;HTU21D;33620;52.340;5.984;2023-04-25T12:49:25;10.57;58.69
47861;HTU21D;33620;52.340;5.984;2023-04-25T12:51:53;10.50;59.85
47861;HTU21D;33620;52.340;5.984;2023-04-25T12:54:21;10.44;59.19
47861;HTU21D;33620;52.340;5.984;2023-04-25T12:56:50;10.67;59.21
47861;HTU21D;33620;52.340;5.984;2023-04-25T12:59:16;10.71;58.48
47861;HTU21D;33620;52.340;5.984;2023-04-25T13:01:42;10.44;57.32
47861;HTU21D;33620;52.340;5.984;2023-04-25T13:04:10;10.55;57.62
47861;HTU21D;33620;52.340;5.984;2023-04-25T13:06:36;10.67;56.85
47861;HTU21D;33620;52.340;5.984;2023-04-25T13:09:01;10.73;56.16
47861;HTU21D;33620;52.340;5.984;2023-04-25T13:11:29;10.80;56.24
47861;HTU21D;33620;52.340;5.984;2023-04-25T13:13:55;11.09;55.41
47861;HTU21D;33620;52.340;5.984;2023-04-25T13:16:21;10.89;52.27
47861;HTU21D;33620;52.340;5.984;2023-04-25T13:18:49;10.77;52.62
47861;HTU21D;33620;52.340;5.984;2023-04-25T13:21:15;10.72;54.14
47861;HTU21D;33620;52.340;5.984;2023-04-25T13:23:40;10.74;54.36
47861;HTU21D;33620;52.340;5.984;2023-04-25T13:26:07;10.89;54.32
47861;HTU21D;33620;52.340;5.984;2023-04-25T13:28:34;10.68;53.11
47861;HTU21D;33620;52.340;5.984;2023-04-25T13:30:59;10.87;54.25
47861;HTU21D;33620;52.340;5.984;2023-04-25T13:33:25;10.99;54.23
47861;HTU21D;33620;52.340;5.984;2023-04-25T13:35:54;10.96;54.83
47861;HTU21D;33620;52.340;5.984;2023-04-25T13:38:21;11.03;55.21
47861;HTU21D;33620;52.340;5.984;2023-04-25T13:40:47;11.13;54.90
47861;HTU21D;33620;52.340;5.984;2023-04-25T13:43:17;11.01;55.61
47861;HTU21D;33620;52.340;5.984;2023-04-25T13:45:43;10.59;51.21
47861;HTU21D;33620;52.340;5.984;2023-04-25T13:48:12;10.68;53.94
47861;HTU21D;33620;52.340;5.984;2023-04-25T13:50:37;10.87;54.64
47861;HTU21D;33620;52.340;5.984;2023-04-25T13:53:05;11.08;53.78
47861;HTU21D;33620;52.340;5.984;2023-04-25T13:55:34;11.15;52.94
47861;HTU21D;33620;52.340;5.984;2023-04-25T13:58:02;11.20;53.50
47861;HTU21D;33620;52.340;5.984;2023-04-25T14:00:33;11.20;52.94
47861;HTU21D;33620;52.340;5.984;2023-04-25T14:02:58;11.04;53.30
47861;HTU21D;33620;52.340;5.984;2023-04-25T14:05:24;10.75;53.96
47861;HTU21D;33620;52.340;5.984;2023-04-25T14:07:49;10.51;53.98
47861;HTU21D;33620;52.340;5.984;2023-04-25T14:10:16;10.41;54.91
47861;HTU21D;33620;52.340;5.984;2023-04-25T14:12:47;10.63;56.79
47861;HTU21D;33620;52.340;5.984;2023-04-25T14:15:12;10.62;54.70
47861;HTU21D;33620;52.340;5.984;2023-04-25T14:17:38;10.51;55.08
47861;HTU21D;33620;52.340;5.984;2023-04-25T14:20:04;10.55;55.36
47861;HTU21D;33620;52.340;5.984;2023-04-25T14:22:31;10.68;55.16
47861;HTU21D;33620;52.340;5.984;2023-04-25T14:24:56;10.85;54.59
47861;HTU21D;33620;52.340;5.984;2023-04-25T14:27:23;10.89;55.07
47861;HTU21D;33620;52.340;5.984;2023-04-25T14:29:54;10.78;53.97
47861;HTU21D;33620;52.340;5.984;2023-04-25T14:32:29;10.45;54.33
47861;HTU21D;33620;52.340;5.984;2023-04-25T14:34:57;10.53;55.52
47861;HTU21D;33620;52.340;5.984;2023-04-25T14:37:23;10.71;55.71
47861;HTU21D;33620;52.340;5.984;2023-04-25T14:39:48;10.95;54.55
47861;HTU21D;33620;52.340;5.984;2023-04-25T14:42:14;11.04;51.65
47861;HTU21D;33620;52.340;5.984;2023-04-25T14:44:40;11.14;47.32
47861;HTU21D;33620;52.340;5.984;2023-04-25T14:47:05;11.20;47.41
47861;HTU21D;33620;52.340;5.984;2023-04-25T14:49:33;11.16;47.98
47861;HTU21D;33620;52.340;5.984;2023-04-25T14:51:59;10.92;47.83
47861;HTU21D;33620;52.340;5.984;2023-04-25T14:54:27;10.80;49.02
47861;HTU21D;33620;52.340;5.984;2023-04-25T14:56:53;10.90;51.16
47861;HTU21D;33620;52.340;5.984;2023-04-25T14:59:18;11.00;52.82
47861;HTU21D;33620;52.340;5.984;2023-04-25T15:01:49;11.15;49.27
47861;HTU21D;33620;52.340;5.984;2023-04-25T15:04:18;11.22;49.83
47861;HTU21D;33620;52.340;5.984;2023-04-25T15:06:43;11.25;49.15
47861;HTU21D;33620;52.340;5.984;2023-04-25T15:09:11;11.24;46.64
47861;HTU21D;33620;52.340;5.984;2023-04-25T15:11:40;11.30;46.34
47861;HTU21D;33620;52.340;5.984;2023-04-25T15:14:08;11.40;47.13
47861;HTU21D;33620;52.340;5.984;2023-04-25T15:16:36;11.31;47.71
47861;HTU21D;33620;52.340;5.984;2023-04-25T15:19:02;11.33;48.51
47861;HTU21D;33620;52.340;5.984;2023-04-25T15:21:31;10.95;48.90
47861;HTU21D;33620;52.340;5.984;2023-04-25T15:23:56;10.82;49.71
47861;HTU21D;33620;52.340;5.984;2023-04-25T15:26:22;10.69;51.48
47861;HTU21D;33620;52.340;5.984;2023-04-25T15:28:51;10.66;50.91